createdAt,value
2022-11-21T00:00:14.731Z,44.9
2022-11-21T00:01:22.225Z,43.3
2022-11-21T00:02:29.748Z,39.2
2022-11-21T00:03:36.728Z,41.3
2022-11-21T00:04:44.203Z,42.6
2022-11-21T00:05:52.733Z,43.3
2022-11-21T00:06:59.824Z,45.2
2022-11-21T00:08:07.044Z,43.6
2022-11-21T00:09:18.477Z,45.3
2022-11-21T00:10:25.745Z,44.2
2022-11-21T00:11:33.292Z,44.9
2022-11-21T00:12:44.398Z,47.4
2022-11-21T00:13:52.080Z,44.4
2022-11-21T00:14:59.848Z,44.4
2022-11-21T00:16:07.917Z,44.6
2022-11-21T00:17:15.353Z,42.8
2022-11-21T00:18:23.828Z,42.6
2022-11-21T00:19:31.088Z,41.3
2022-11-21T00:20:38.100Z,40.3
2022-11-21T00:21:46.294Z,42.4
2022-11-21T00:22:53.938Z,39.5
2022-11-21T00:24:01.038Z,38.9
2022-11-21T00:25:09.383Z,40.3
2022-11-21T00:26:16.890Z,35.8
2022-11-21T00:27:23.976Z,38.6
2022-11-21T00:28:31.489Z,40
2022-11-21T00:29:39.313Z,35.7
2022-11-21T00:30:47.328Z,35.7
2022-11-21T00:31:54.575Z,38.8
2022-11-21T00:33:02.848Z,44
2022-11-21T00:34:09.957Z,41.3
2022-11-21T00:35:17.316Z,39.1
2022-11-21T00:36:25.421Z,40.9
2022-11-21T00:37:33.032Z,42.8
2022-11-21T00:38:40.120Z,40.1
2022-11-21T00:39:47.224Z,38.3
2022-11-21T00:40:54.468Z,39.3
2022-11-21T00:42:01.734Z,38.5
2022-11-21T00:43:09.123Z,39.8
2022-11-21T00:44:16.520Z,38.7
2022-11-21T00:45:24.565Z,40
2022-11-21T00:46:31.205Z,39.1
2022-11-21T00:47:39.540Z,37.3
2022-11-21T00:48:47.299Z,37.5
2022-11-21T00:49:54.756Z,36.3
2022-11-21T00:51:01.736Z,39.9
2022-11-21T00:52:09.884Z,39.9
2022-11-21T00:53:20.236Z,37.9
2022-11-21T00:54:27.848Z,40
2022-11-21T00:55:35.076Z,39.4
2022-11-21T00:56:42.780Z,39.1
2022-11-21T00:57:50.132Z,35.8
2022-11-21T00:58:57.293Z,41
2022-11-21T01:00:05.332Z,41.2
2022-11-21T01:01:13.466Z,35.9
2022-11-21T01:02:20.856Z,38.8
2022-11-21T01:03:28.101Z,39.9
2022-11-21T01:04:36.723Z,39.8
2022-11-21T01:05:44.220Z,39
2022-11-21T01:06:51.559Z,37
2022-11-21T01:07:58.678Z,36.6
2022-11-21T01:09:06.447Z,35.5
2022-11-21T01:10:14.587Z,35.8
2022-11-21T01:11:22.264Z,36.9
2022-11-21T01:12:29.775Z,35.9
2022-11-21T01:13:37.897Z,37.3
2022-11-21T01:14:45.319Z,36.6
2022-11-21T01:15:52.642Z,39
2022-11-21T01:16:59.596Z,39.1
2022-11-21T01:18:12.731Z,38.7
2022-11-21T01:19:22.796Z,37.7
2022-11-21T01:20:30.468Z,38.9
2022-11-21T01:21:37.815Z,40.7
2022-11-21T01:22:45.277Z,42.2
2022-11-21T01:23:52.700Z,42.2
2022-11-21T01:25:03.181Z,40.7
2022-11-21T01:26:10.312Z,38.8
2022-11-21T01:27:19.356Z,40.6
2022-11-21T01:28:26.864Z,37.5
2022-11-21T01:29:34.334Z,38.9
2022-11-21T01:30:41.687Z,38.2
2022-11-21T01:31:49.283Z,38.7
2022-11-21T01:32:57.498Z,37.4
2022-11-21T01:34:05.695Z,37.3
2022-11-21T01:35:13.734Z,34.7
2022-11-21T01:36:20.587Z,37.2
2022-11-21T01:37:28.961Z,36.8
2022-11-21T01:38:36.920Z,37.8
2022-11-21T01:39:44.884Z,40.6
2022-11-21T01:40:52.330Z,44.1
2022-11-21T01:42:00.053Z,43.3
2022-11-21T01:43:07.649Z,43.7
2022-11-21T01:44:14.608Z,45.3
2022-11-21T01:45:24.353Z,42.2
2022-11-21T01:46:42.082Z,42.5
2022-11-21T01:47:50.091Z,40
2022-11-21T01:48:57.386Z,42.4
2022-11-21T01:50:07.184Z,39.2
2022-11-21T01:51:11.592Z,38.2
2022-11-21T01:52:21.605Z,37.3
2022-11-21T01:53:29.829Z,37.3
2022-11-21T01:54:37.409Z,37.1
2022-11-21T01:55:50.057Z,36.8
2022-11-21T01:56:57.694Z,37
2022-11-21T01:58:11.011Z,38.1
2022-11-21T01:59:18.394Z,39.5
2022-11-21T02:00:30.689Z,37.1
2022-11-21T02:01:37.733Z,38.6
2022-11-21T02:02:45.754Z,38.5
2022-11-21T02:03:52.949Z,37.8
2022-11-21T02:05:00.194Z,36.7
2022-11-21T02:06:08.161Z,36.4
2022-11-21T02:07:15.519Z,37.4
2022-11-21T02:08:22.985Z,37.2
2022-11-21T02:09:30.337Z,40.1
2022-11-21T02:10:37.389Z,37.9
2022-11-21T02:11:44.768Z,37.8
2022-11-21T02:12:55.110Z,39.4
2022-11-21T02:14:02.317Z,37.6
2022-11-21T02:15:09.606Z,37.2
2022-11-21T02:16:17.782Z,37.8
2022-11-21T02:17:24.737Z,38
2022-11-21T02:18:31.898Z,41.5
2022-11-21T02:19:39.054Z,39.9
2022-11-21T02:20:51.211Z,38.8
2022-11-21T02:21:58.373Z,39.3
2022-11-21T02:23:05.997Z,41.1
2022-11-21T02:24:17.009Z,45.1
2022-11-21T02:25:29.663Z,39.8
2022-11-21T02:26:39.613Z,40.3
2022-11-21T02:27:46.839Z,35.6
2022-11-21T02:28:54.397Z,39.5
2022-11-21T02:30:02.585Z,40.8
2022-11-21T02:31:12.226Z,36.7
2022-11-21T02:32:19.617Z,38.6
2022-11-21T02:33:29.554Z,41.9
2022-11-21T02:34:36.841Z,40.9
2022-11-21T02:35:44.204Z,37
2022-11-21T02:36:59.009Z,37.1
2022-11-21T02:38:06.194Z,37.2
2022-11-21T02:39:21.538Z,44.9
2022-11-21T02:40:28.901Z,40.3
2022-11-21T02:41:36.457Z,41.4
2022-11-21T02:42:52.615Z,39.2
2022-11-21T02:44:01.458Z,37.9
2022-11-21T02:45:09.659Z,37.4
2022-11-21T02:46:23.367Z,39.1
2022-11-21T02:47:30.813Z,36
2022-11-21T02:48:38.164Z,38.3
2022-11-21T02:49:46.429Z,36.7
2022-11-21T02:51:00.354Z,36.4
2022-11-21T02:52:07.509Z,33.7
2022-11-21T02:53:14.816Z,33.3
2022-11-21T02:54:22.036Z,34.6
2022-11-21T02:55:29.545Z,34.6
2022-11-21T02:56:41.982Z,32.6
2022-11-21T02:57:53.769Z,33.8
2022-11-21T02:59:00.885Z,34.5
2022-11-21T03:00:08.066Z,32.9
2022-11-21T03:01:16.439Z,33.1
2022-11-21T03:02:25.446Z,33.7
2022-11-21T03:03:32.644Z,32.5
2022-11-21T03:04:39.673Z,32.5
2022-11-21T03:05:46.882Z,33.7
2022-11-21T03:06:55.038Z,33.7
2022-11-21T03:08:02.372Z,35.6
2022-11-21T03:09:09.767Z,33.9
2022-11-21T03:10:18.065Z,34.2
2022-11-21T03:11:25.400Z,31.9
2022-11-21T03:12:33.629Z,33.5
2022-11-21T03:13:41.235Z,32.4
2022-11-21T03:14:49.617Z,31.7
2022-11-21T03:15:56.995Z,34.1
2022-11-21T03:17:04.373Z,30.3
2022-11-21T03:18:12.777Z,31.7
2022-11-21T03:19:20.353Z,31.7
2022-11-21T03:20:28.089Z,33.2
2022-11-21T03:21:35.426Z,32.6
2022-11-21T03:22:43.361Z,31.1
2022-11-21T03:23:50.885Z,33.1
2022-11-21T03:24:59.277Z,33.3
2022-11-21T03:26:06.753Z,33.7
2022-11-21T03:27:15.476Z,34.8
2022-11-21T03:28:22.957Z,31.7
2022-11-21T03:29:30.034Z,32.9
2022-11-21T03:30:37.048Z,34.4
2022-11-21T03:31:44.525Z,33.4
2022-11-21T03:32:52.053Z,33.7
2022-11-21T03:33:59.121Z,35.8
2022-11-21T03:35:07.060Z,32.5
2022-11-21T03:36:14.497Z,31.7
2022-11-21T03:37:22.377Z,32.4
2022-11-21T03:38:29.661Z,33.4
2022-11-21T03:39:37.874Z,33.7
2022-11-21T03:40:45.888Z,32.5
2022-11-21T03:41:53.829Z,34.9
2022-11-21T03:43:01.345Z,35.2
2022-11-21T03:44:10.057Z,33.2
2022-11-21T03:45:17.705Z,36.4
2022-11-21T03:46:25.168Z,35.9
2022-11-21T03:47:32.275Z,36.6
2022-11-21T03:48:41.339Z,34.4
2022-11-21T03:49:48.616Z,35.7
2022-11-21T03:50:55.789Z,34.9
2022-11-21T03:52:03.052Z,34.4
2022-11-21T03:53:10.023Z,36.9
2022-11-21T03:54:18.153Z,38.8
2022-11-21T03:55:25.316Z,36.8
2022-11-21T03:56:32.452Z,34.7
2022-11-21T03:57:41.273Z,36.1
2022-11-21T03:58:50.126Z,36.6
2022-11-21T03:59:57.742Z,39
2022-11-21T04:01:05.183Z,38.5
2022-11-21T04:02:12.449Z,35.7
2022-11-21T04:03:20.597Z,36.5
2022-11-21T04:04:36.449Z,39.3
2022-11-21T04:05:57.916Z,38.6
2022-11-21T04:07:05.772Z,40.7
2022-11-21T04:08:12.876Z,39.5
2022-11-21T04:09:20.476Z,41.2
2022-11-21T04:10:28.913Z,37.5
2022-11-21T04:11:37.133Z,39.3
2022-11-21T04:12:44.443Z,39.9
2022-11-21T04:13:52.032Z,40.1
2022-11-21T04:14:59.580Z,38.9
2022-11-21T04:16:07.117Z,41
2022-11-21T04:17:14.394Z,41.6
2022-11-21T04:18:22.172Z,40.7
2022-11-21T04:19:30.882Z,43.3
2022-11-21T04:20:38.308Z,43.3
2022-11-21T04:21:46.184Z,40.5
2022-11-21T04:22:53.548Z,41.1
2022-11-21T04:24:04.377Z,38.8
2022-11-21T04:25:11.973Z,39.4
2022-11-21T04:26:19.548Z,41.9
2022-11-21T04:27:27.004Z,41
2022-11-21T04:28:34.203Z,41.1
2022-11-21T04:29:41.389Z,39.8
2022-11-21T04:30:48.725Z,38.2
2022-11-21T04:31:56.232Z,40.3
2022-11-21T04:33:03.440Z,38.7
2022-11-21T04:34:10.987Z,40.5
2022-11-21T04:35:18.073Z,39.4
2022-11-21T04:36:25.162Z,39
2022-11-21T04:37:32.485Z,39.4
2022-11-21T04:38:40.625Z,40.6
2022-11-21T04:39:47.827Z,38.7
2022-11-21T04:40:56.437Z,39.9
2022-11-21T04:42:05.028Z,39.5
2022-11-21T04:43:14.890Z,40.9
2022-11-21T04:44:22.194Z,42.7
2022-11-21T04:45:29.383Z,43.1
2022-11-21T04:46:36.733Z,43.6
2022-11-21T04:47:45.029Z,44.6
2022-11-21T04:48:52.259Z,44.6
2022-11-21T04:49:59.477Z,48
2022-11-21T04:51:06.741Z,44
2022-11-21T04:52:14.702Z,44.5
2022-11-21T04:53:22.201Z,47.4
2022-11-21T04:54:31.151Z,43.9
2022-11-21T04:55:38.645Z,44.4
2022-11-21T04:56:45.905Z,44
2022-11-21T04:57:53.113Z,43.1
2022-11-21T04:59:01.337Z,40.8
2022-11-21T05:00:08.962Z,39.1
2022-11-21T05:01:17.661Z,41.7
2022-11-21T05:02:25.825Z,38.9
2022-11-21T05:03:34.005Z,39.5
2022-11-21T05:04:42.657Z,42
2022-11-21T05:05:53.325Z,39.4
2022-11-21T05:07:05.183Z,38.4
2022-11-21T05:08:13.083Z,37.7
2022-11-21T05:09:26.022Z,37.1
2022-11-21T05:10:35.470Z,39.5
2022-11-21T05:11:48.519Z,34.7
2022-11-21T05:13:01.046Z,34.8
2022-11-21T05:14:13.874Z,36.2
2022-11-21T05:15:24.561Z,35.6
2022-11-21T05:16:29.513Z,34.4
2022-11-21T05:17:37.096Z,34.2
2022-11-21T05:18:45.945Z,39
2022-11-21T05:19:53.885Z,42.9
2022-11-21T05:21:09.628Z,46.5
2022-11-21T05:22:16.670Z,47.9
2022-11-21T05:23:23.964Z,53.7
2022-11-21T05:24:31.523Z,56
2022-11-21T05:25:39.097Z,52.6
2022-11-21T05:26:46.715Z,49.6
2022-11-21T05:27:53.928Z,54.2
2022-11-21T05:29:02.213Z,51.7
2022-11-21T05:30:09.445Z,55.1
2022-11-21T05:31:17.513Z,53.4
2022-11-21T05:32:24.565Z,54.2
2022-11-21T05:33:31.537Z,57
2022-11-21T05:34:38.841Z,55.3
2022-11-21T05:35:47.706Z,48
2022-11-21T05:36:55.450Z,51.4
2022-11-21T05:38:02.689Z,54.2
2022-11-21T05:39:11.405Z,51
2022-11-21T05:40:18.751Z,53.4
2022-11-21T05:41:28.786Z,47.1
2022-11-21T05:42:36.813Z,48
2022-11-21T05:43:49.068Z,49.2
2022-11-21T05:44:57.560Z,46.7
2022-11-21T05:46:05.729Z,44.3
2022-11-21T05:47:13.253Z,43.2
2022-11-21T05:48:20.769Z,43.2
2022-11-21T05:49:28.198Z,37.7
2022-11-21T05:50:35.630Z,40.1
2022-11-21T05:51:42.732Z,40.4
2022-11-21T05:52:49.777Z,40.1
2022-11-21T05:53:57.418Z,40.3
2022-11-21T05:55:05.277Z,38.7
2022-11-21T05:56:12.815Z,37.7
2022-11-21T05:57:20.242Z,34.5
2022-11-21T05:58:27.947Z,32.8
2022-11-21T05:59:36.592Z,33.9
2022-11-21T06:00:43.767Z,33.5
2022-11-21T06:01:51.467Z,32.1
2022-11-21T06:03:04.274Z,34.4
2022-11-21T06:04:17.375Z,35.1
2022-11-21T06:05:25.371Z,36.7
2022-11-21T06:06:41.068Z,33
2022-11-21T06:07:53.579Z,35.3
2022-11-21T06:09:00.551Z,36.4
2022-11-21T06:10:07.659Z,35.6
2022-11-21T06:11:16.141Z,35.2
2022-11-21T06:12:25.565Z,39.3
2022-11-21T06:13:30.599Z,37.6
2022-11-21T06:14:38.254Z,35.6
2022-11-21T06:15:45.462Z,38.9
2022-11-21T06:16:57.588Z,43.9
2022-11-21T06:18:04.603Z,40.7
2022-11-21T06:19:11.744Z,41.7
2022-11-21T06:20:19.303Z,39.2
2022-11-21T06:21:27.652Z,40.3
2022-11-21T06:22:35.634Z,38.3
2022-11-21T06:23:42.889Z,40
2022-11-21T06:24:52.033Z,37.5
2022-11-21T06:25:59.248Z,41.3
2022-11-21T06:27:06.976Z,37.3
2022-11-21T06:28:15.514Z,41.2
2022-11-21T06:29:22.739Z,41.1
2022-11-21T06:30:31.087Z,40.9
2022-11-21T06:31:38.666Z,39.1
2022-11-21T06:32:46.459Z,40
2022-11-21T06:33:53.778Z,39.9
2022-11-21T06:35:01.163Z,40.8
2022-11-21T06:36:08.574Z,40.5
2022-11-21T06:37:16.215Z,38.5
2022-11-21T06:38:23.335Z,41.8
2022-11-21T06:39:30.438Z,39.3
2022-11-21T06:40:37.887Z,42.4
2022-11-21T06:41:45.903Z,41.4
2022-11-21T06:42:55.135Z,41.1
2022-11-21T06:44:02.498Z,41.5
2022-11-21T06:45:09.635Z,42.2
2022-11-21T06:46:16.830Z,39
2022-11-21T06:47:24.947Z,42.4
2022-11-21T06:48:32.346Z,45.3
2022-11-21T06:49:39.942Z,43.3
2022-11-21T06:50:47.683Z,43.7
2022-11-21T06:51:56.339Z,42
2022-11-21T06:53:03.653Z,42.3
2022-11-21T06:54:15.193Z,43.7
2022-11-21T06:55:18.034Z,43.6
2022-11-21T06:56:25.780Z,41.9
2022-11-21T06:57:33.402Z,42.6
2022-11-21T06:58:40.306Z,43.9
2022-11-21T06:59:47.515Z,47.2
2022-11-21T07:00:54.606Z,47.6
2022-11-21T07:02:02.818Z,46.9
2022-11-21T07:03:11.163Z,52.8
2022-11-21T07:04:19.666Z,48.9
2022-11-21T07:05:28.240Z,49.7
2022-11-21T07:06:35.326Z,47.9
2022-11-21T07:07:43.057Z,48.8
2022-11-21T07:09:00.157Z,48.3
2022-11-21T07:09:57.299Z,48.2
2022-11-21T07:11:23.940Z,46.9
2022-11-21T07:12:12.407Z,48.8
2022-11-21T07:13:24.751Z,49.5
2022-11-21T07:14:32.604Z,52.4
2022-11-21T07:15:40.832Z,52.8
2022-11-21T07:16:49.574Z,53.5
2022-11-21T07:17:57.160Z,46.1
2022-11-21T07:19:04.469Z,50.1
2022-11-21T07:20:11.699Z,50.5
2022-11-21T07:21:19.126Z,51.6
2022-11-21T07:22:26.424Z,50.1
2022-11-21T07:23:34.779Z,46.6
2022-11-21T07:24:43.702Z,42.8
2022-11-21T07:25:50.795Z,40.2
2022-11-21T07:26:57.826Z,36.6
2022-11-21T07:28:05.097Z,36.9
2022-11-21T07:29:12.291Z,36.1
2022-11-21T07:30:20.214Z,37.1
2022-11-21T07:31:27.366Z,39.8
2022-11-21T07:32:39.636Z,41.8
2022-11-21T07:33:47.015Z,49.1
2022-11-21T07:35:04.618Z,55.2
2022-11-21T07:36:16.678Z,57.7
2022-11-21T07:37:24.787Z,52.1
2022-11-21T07:38:37.718Z,51.1
2022-11-21T07:39:45.851Z,57.4
2022-11-21T07:40:55.642Z,51
2022-11-21T07:42:03.286Z,45.3
2022-11-21T07:43:11.035Z,45.5
2022-11-21T07:44:20.781Z,45.1
2022-11-21T07:45:28.408Z,48.4
2022-11-21T07:46:35.455Z,46.7
2022-11-21T07:47:42.858Z,50.9
2022-11-21T07:48:50.059Z,49.9
2022-11-21T07:49:57.232Z,59.4
2022-11-21T07:51:05.668Z,59.4
2022-11-21T07:52:13.055Z,56.9
2022-11-21T07:53:21.183Z,61.9
2022-11-21T07:54:28.680Z,66.6
2022-11-21T07:55:40.505Z,66.4
2022-11-21T07:56:44.540Z,74.3
2022-11-21T07:57:52.183Z,79.5
2022-11-21T07:59:06.887Z,70.1
2022-11-21T08:00:16.111Z,69.2
2022-11-21T08:01:23.516Z,72.6
2022-11-21T08:02:30.367Z,75
2022-11-21T08:03:37.795Z,70.5
2022-11-21T08:04:45.627Z,69.1
2022-11-21T08:05:53.023Z,71.8
2022-11-21T08:07:00.159Z,65.2
2022-11-21T08:08:07.032Z,64.3
2022-11-21T08:09:15.447Z,67.5
2022-11-21T08:10:23.959Z,71.8
2022-11-21T08:11:31.013Z,67.5
2022-11-21T08:12:38.145Z,60.1
2022-11-21T08:13:45.644Z,58.3
2022-11-21T08:14:53.016Z,60.5
2022-11-21T08:16:01.348Z,55.6
2022-11-21T08:17:08.810Z,54.3
2022-11-21T08:18:15.867Z,52.5
2022-11-21T08:19:23.169Z,51.3
2022-11-21T08:20:30.628Z,49.2
2022-11-21T08:21:37.724Z,47.2
2022-11-21T08:22:44.783Z,49.1
2022-11-21T08:23:52.120Z,44.5
2022-11-21T08:24:59.083Z,46.1
2022-11-21T08:26:06.268Z,47.3
2022-11-21T08:27:13.424Z,44.9
2022-11-21T08:28:20.486Z,44.8
2022-11-21T08:29:27.839Z,47.1
2022-11-21T08:30:34.795Z,51.3
2022-11-21T08:31:42.847Z,47
2022-11-21T08:32:50.266Z,47.4
2022-11-21T08:33:57.187Z,46.3
2022-11-21T08:35:05.335Z,49.2
2022-11-21T08:36:12.751Z,45.7
2022-11-21T08:37:20.102Z,42.3
2022-11-21T08:38:27.223Z,43.2
2022-11-21T08:39:34.816Z,42.7
2022-11-21T08:40:42.443Z,38.8
2022-11-21T08:41:50.270Z,41.3
2022-11-21T08:43:02.535Z,41.3
2022-11-21T08:44:13.758Z,45
2022-11-21T08:45:17.155Z,46.7
2022-11-21T08:46:25.075Z,44.2
2022-11-21T08:47:32.811Z,47.2
2022-11-21T08:48:40.075Z,42.6
2022-11-21T08:49:47.251Z,38.3
2022-11-21T08:50:54.436Z,40.3
2022-11-21T08:52:01.507Z,40.1
2022-11-21T08:53:08.571Z,37.4
2022-11-21T08:54:15.817Z,39.8
2022-11-21T08:55:23.022Z,39.5
2022-11-21T08:56:30.008Z,40.4
2022-11-21T08:57:37.168Z,42.3
2022-11-21T08:58:44.643Z,40.3
2022-11-21T08:59:52.071Z,41.1
2022-11-21T09:00:59.091Z,42.4
2022-11-21T09:02:06.617Z,37.9
2022-11-21T09:03:16.764Z,37.1
2022-11-21T09:04:21.109Z,39.5
2022-11-21T09:05:28.203Z,39.5
2022-11-21T09:06:35.409Z,34.9
2022-11-21T09:07:42.437Z,35.7
2022-11-21T09:08:49.570Z,36
2022-11-21T09:09:56.700Z,34.3
2022-11-21T09:11:03.978Z,35.9
2022-11-21T09:12:11.085Z,39.1
2022-11-21T09:13:18.414Z,36.4
2022-11-21T09:14:25.710Z,36.3
2022-11-21T09:15:37.487Z,37.2
2022-11-21T09:16:50.895Z,35.1
2022-11-21T09:18:03.509Z,34.7
2022-11-21T09:19:10.578Z,34.1
2022-11-21T09:20:18.774Z,36
2022-11-21T09:21:26.799Z,31.2
2022-11-21T09:22:34.295Z,35
2022-11-21T09:23:41.658Z,30.8
2022-11-21T09:24:48.874Z,36.6
2022-11-21T09:25:55.923Z,32.7
2022-11-21T09:27:03.332Z,31.1
2022-11-21T09:28:10.626Z,27
2022-11-21T09:29:17.735Z,30.8
2022-11-21T09:30:25.378Z,32.3
2022-11-21T09:31:33.593Z,32.3
2022-11-21T09:32:42.602Z,31.5
2022-11-21T09:33:54.722Z,29.2
2022-11-21T09:34:57.131Z,27.7
2022-11-21T09:36:04.306Z,27.3
2022-11-21T09:37:12.230Z,29.2
2022-11-21T09:38:23.742Z,25
2022-11-21T09:39:27.517Z,25.4
2022-11-21T09:40:34.552Z,26.1
2022-11-21T09:41:41.846Z,26.6
2022-11-21T09:43:04.255Z,24.3
2022-11-21T09:44:19.034Z,23.3
2022-11-21T09:45:26.146Z,25.2
2022-11-21T09:46:36.371Z,25.4
2022-11-21T09:47:43.524Z,23.8
2022-11-21T09:48:50.681Z,22.2
2022-11-21T09:49:57.731Z,26.5
2022-11-21T09:51:08.355Z,25.7
2022-11-21T09:52:15.628Z,24.4
2022-11-21T09:53:22.727Z,23
2022-11-21T09:54:37.907Z,24.1
2022-11-21T09:55:45.131Z,24.3
2022-11-21T09:56:52.287Z,21.9
2022-11-21T09:57:59.403Z,26.6
2022-11-21T09:59:16.896Z,23.1
2022-11-21T10:00:32.033Z,21.1
2022-11-21T10:01:39.055Z,22.9
2022-11-21T10:04:24.928Z,24
2022-11-21T10:05:31.948Z,23.5
2022-11-21T10:06:44.218Z,22.9
2022-11-21T10:07:56.596Z,24.1
2022-11-21T10:09:03.515Z,23.6
2022-11-21T10:10:16.768Z,24
2022-11-21T10:11:34.175Z,26.7
2022-11-21T10:12:46.531Z,20
2022-11-21T10:14:05.119Z,22.6
2022-11-21T10:15:19.907Z,23.1
2022-11-21T10:16:29.808Z,19.7
2022-11-21T10:17:39.843Z,22
2022-11-21T10:18:53.066Z,20.9
2022-11-21T10:20:08.303Z,22.4
2022-11-21T10:21:21.232Z,19.7
2022-11-21T10:22:29.113Z,21.5
2022-11-21T10:23:44.203Z,18.4
2022-11-21T10:25:01.822Z,20
2022-11-21T10:26:16.582Z,19.1
2022-11-21T10:27:32.311Z,23.1
2022-11-21T10:28:41.939Z,20.4
2022-11-21T10:29:49.142Z,18.7
2022-11-21T10:30:58.982Z,17.6
2022-11-21T10:32:06.435Z,20.9
2022-11-21T10:33:18.576Z,19.8
2022-11-21T10:34:31.172Z,20.6
2022-11-21T10:35:39.159Z,19.5
2022-11-21T10:36:51.491Z,19.3
2022-11-21T10:37:59.006Z,18.5
2022-11-21T10:39:06.799Z,20.3
2022-11-21T10:40:16.603Z,18.5
2022-11-21T10:41:27.043Z,16.8
2022-11-21T10:42:39.650Z,20.1
2022-11-21T10:43:55.647Z,19.9
2022-11-21T10:45:13.067Z,18.9
2022-11-21T10:46:20.197Z,17.3
2022-11-21T10:47:27.657Z,16.5
2022-11-21T10:48:35.598Z,17.1
2022-11-21T10:49:43.068Z,16.9
2022-11-21T10:50:50.574Z,18.8
2022-11-21T10:52:03.927Z,18.1
2022-11-21T10:53:14.191Z,18.8
2022-11-21T10:54:26.655Z,17.9
2022-11-21T10:55:36.527Z,17.3
2022-11-21T10:56:43.938Z,16.5
2022-11-21T10:57:50.871Z,14.8
2022-11-21T10:58:57.944Z,15.8
2022-11-21T11:00:05.262Z,15.5
2022-11-21T11:01:15.808Z,15.3
2022-11-21T11:02:28.004Z,14.6
2022-11-21T11:03:35.166Z,14.1
2022-11-21T11:04:47.694Z,15.4
2022-11-21T11:05:49.783Z,14.5
2022-11-21T11:06:57.147Z,14.1
2022-11-21T11:08:04.534Z,14.5
2022-11-21T11:09:12.794Z,16.3
2022-11-21T11:10:29.117Z,15.1
2022-11-21T11:11:39.249Z,14.3
2022-11-21T11:12:46.646Z,13.7
2022-11-21T11:13:58.659Z,14.4
2022-11-21T11:15:05.837Z,13.8
2022-11-21T11:16:12.978Z,15.8
2022-11-21T11:17:20.048Z,13.9
2022-11-21T11:18:32.271Z,15.1
2022-11-21T11:19:42.692Z,16
2022-11-21T11:20:54.650Z,12.1
2022-11-21T11:22:10.218Z,15.7
2022-11-21T11:23:27.758Z,16.5
2022-11-21T11:24:35.112Z,15.3
2022-11-21T11:25:41.996Z,15.5
2022-11-21T11:26:52.186Z,12.8
2022-11-21T11:28:00.498Z,14.2
2022-11-21T11:29:08.937Z,14.3
2022-11-21T11:30:26.379Z,13.4
2022-11-21T11:31:33.450Z,14.9
2022-11-21T11:32:51.726Z,13.6
2022-11-21T11:33:59.094Z,15
2022-11-21T11:35:06.020Z,16.5
2022-11-21T11:36:16.938Z,16.4
2022-11-21T11:37:35.807Z,16.8
2022-11-21T11:38:43.790Z,16.9
2022-11-21T11:39:58.753Z,15
2022-11-21T11:41:11.394Z,14.4
2022-11-21T11:42:23.374Z,15.7
2022-11-21T11:43:40.641Z,15.4
2022-11-21T11:44:55.591Z,14
2022-11-21T11:46:15.822Z,12.8
2022-11-21T11:47:28.812Z,13.4
2022-11-21T11:48:50.333Z,11.4
2022-11-21T11:49:44.673Z,12.3
2022-11-21T11:50:57.931Z,11.1
2022-11-21T11:52:04.929Z,11.7
2022-11-21T11:53:13.180Z,13.6
2022-11-21T11:54:22.988Z,12.2
2022-11-21T11:55:30.481Z,13.9
2022-11-21T11:56:47.173Z,14.1
2022-11-21T11:57:54.328Z,14.9
2022-11-21T11:59:01.881Z,13.5
2022-11-21T12:00:14.080Z,13.1
2022-11-21T12:01:31.024Z,14.8
2022-11-21T12:02:46.992Z,13.2
2022-11-21T12:04:05.264Z,12.6
2022-11-21T12:05:18.557Z,13.2
2022-11-21T12:06:52.800Z,13.9
2022-11-21T12:08:51.585Z,15.3
2022-11-21T12:09:59.129Z,14.1
2022-11-21T12:11:14.260Z,15.6
2022-11-21T12:12:37.492Z,12.9
2022-11-21T12:13:46.160Z,14.4
2022-11-21T12:14:53.276Z,14.1
2022-11-21T12:16:13.521Z,12.6
2022-11-21T12:17:17.601Z,14.3
2022-11-21T12:18:25.029Z,12.2
2022-11-21T12:19:34.909Z,12.7
2022-11-21T12:20:42.085Z,12.8
2022-11-21T12:21:50.116Z,15.7
2022-11-21T12:22:57.328Z,14.1
2022-11-21T12:24:04.521Z,13.4
2022-11-21T12:25:11.730Z,11.9
2022-11-21T12:26:18.976Z,15.8
2022-11-21T12:27:34.156Z,14.8
2022-11-21T12:28:41.579Z,15.4
2022-11-21T12:29:58.256Z,14.9
2022-11-21T12:31:16.726Z,12.1
2022-11-21T12:32:34.239Z,12.4
2022-11-21T12:33:47.639Z,14.3
2022-11-21T12:35:00.093Z,15.2
2022-11-21T12:36:18.149Z,14.8
2022-11-21T12:37:27.552Z,18.7
2022-11-21T12:38:44.669Z,17.2
2022-11-21T12:39:57.064Z,19.1
2022-11-21T12:41:12.927Z,17.2
2022-11-21T12:42:32.679Z,18.3
2022-11-21T12:43:45.488Z,16.6
2022-11-21T12:44:52.737Z,15.7
2022-11-21T12:46:05.004Z,15.9
2022-11-21T12:47:17.844Z,16
2022-11-21T12:48:27.547Z,16.9
2022-11-21T12:49:47.955Z,16.1
2022-11-21T12:51:02.706Z,13.6
2022-11-21T12:52:25.921Z,14.8
2022-11-21T12:53:40.884Z,13.7
2022-11-21T12:54:56.132Z,15.7
2022-11-21T12:56:11.453Z,15.2
2022-11-21T12:57:20.031Z,18.7
2022-11-21T12:58:35.762Z,19.2
2022-11-21T12:59:43.863Z,16.9
2022-11-21T13:01:01.492Z,13.3
2022-11-21T13:02:14.036Z,14.6
2022-11-21T13:03:31.320Z,12.4
2022-11-21T13:04:43.528Z,15.7
2022-11-21T13:05:50.804Z,15.4
2022-11-21T13:07:00.545Z,14.9
2022-11-21T13:08:07.528Z,14.2
2022-11-21T13:09:14.628Z,13.8
2022-11-21T13:10:24.369Z,13.7
2022-11-21T13:11:31.500Z,15.4
2022-11-21T13:12:50.652Z,15.4
2022-11-21T13:14:04.179Z,13.7
2022-11-21T13:15:19.316Z,15.3
2022-11-21T13:16:31.678Z,13.4
2022-11-21T13:17:41.761Z,18.7
2022-11-21T13:18:54.821Z,19.1
2022-11-21T13:20:02.164Z,14.8
2022-11-21T13:21:20.236Z,17.1
2022-11-21T13:22:37.904Z,14
2022-11-21T13:23:44.796Z,16.6
2022-11-21T13:24:52.295Z,15.6
2022-11-21T13:26:00.048Z,15.5
2022-11-21T13:27:17.533Z,15.9
2022-11-21T13:28:27.917Z,19.7
2022-11-21T13:29:37.626Z,21.1
2022-11-21T13:30:44.673Z,21.1
2022-11-21T13:31:51.718Z,22
2022-11-21T13:32:59.037Z,20
2022-11-21T13:34:06.924Z,18
2022-11-21T13:35:19.398Z,17.3
2022-11-21T13:36:26.857Z,14.9
2022-11-21T13:37:33.920Z,18.7
2022-11-21T13:38:51.464Z,17
2022-11-21T13:39:58.407Z,15.7
2022-11-21T13:41:15.840Z,17.4
2022-11-21T13:42:36.770Z,16.9
2022-11-21T13:43:59.495Z,18.9
2022-11-21T13:45:16.819Z,17
2022-11-21T13:46:32.557Z,18.9
2022-11-21T13:47:54.099Z,19.9
2022-11-21T13:49:00.159Z,20
2022-11-21T13:50:10.309Z,20.2
2022-11-21T13:51:22.425Z,20
2022-11-21T13:52:39.752Z,20.3
2022-11-21T13:53:57.729Z,20
2022-11-21T13:55:07.848Z,19.5
2022-11-21T13:56:25.097Z,19.7
2022-11-21T13:57:42.423Z,20.3
2022-11-21T13:58:52.619Z,18.2
2022-11-21T14:00:08.294Z,20.6
2022-11-21T14:01:27.529Z,20.1
2022-11-21T14:02:44.708Z,17.6
2022-11-21T14:04:02.680Z,19.3
2022-11-21T14:05:13.956Z,19.3
2022-11-21T14:06:32.893Z,16.9
2022-11-21T14:07:44.867Z,20.4
2022-11-21T14:08:52.709Z,19.2
2022-11-21T14:10:11.252Z,20.8
2022-11-21T14:11:29.173Z,18.7
2022-11-21T14:12:39.733Z,19.2
2022-11-21T14:13:44.389Z,17.7
2022-11-21T14:14:51.855Z,21.6
2022-11-21T14:16:04.205Z,19.8
2022-11-21T14:17:21.359Z,19.9
2022-11-21T14:18:38.889Z,19.6
2022-11-21T14:19:47.357Z,19.9
2022-11-21T14:20:55.565Z,19.6
2022-11-21T14:22:02.704Z,23.4
2022-11-21T14:23:16.188Z,20.3
2022-11-21T14:24:24.107Z,22.1
2022-11-21T14:25:31.194Z,22.9
2022-11-21T14:26:44.192Z,20
2022-11-21T14:27:51.315Z,22.1
2022-11-21T14:28:59.580Z,18.8
2022-11-21T14:30:17.333Z,23.9
2022-11-21T14:31:29.892Z,20
2022-11-21T14:32:37.400Z,23.5
2022-11-21T14:33:45.451Z,22.4
2022-11-21T14:34:52.688Z,23.1
2022-11-21T14:36:10.234Z,21.3
2022-11-21T14:37:21.621Z,24.2
2022-11-21T14:38:28.891Z,24.2
2022-11-21T14:39:50.069Z,25.6
2022-11-21T14:40:54.376Z,26.9
2022-11-21T14:42:12.892Z,25.9
2022-11-21T14:43:19.748Z,25.2
2022-11-21T14:44:27.648Z,27.7
2022-11-21T14:45:34.055Z,26.8
2022-11-21T14:46:41.565Z,23.4
2022-11-21T14:47:48.977Z,21.7
2022-11-21T14:48:56.103Z,20.1
2022-11-21T14:50:14.647Z,20.4
2022-11-21T14:51:32.293Z,20.3
2022-11-21T14:52:40.033Z,20.5
2022-11-21T14:53:47.515Z,24.8
2022-11-21T14:56:04.747Z,22.2
2022-11-21T14:57:11.872Z,21.5
2022-11-21T14:58:21.648Z,23.1
2022-11-21T14:59:28.788Z,26.2
2022-11-21T15:00:59.414Z,24.9
2022-11-21T15:01:47.689Z,28.7
2022-11-21T15:02:58.108Z,27.3
2022-11-21T15:04:05.692Z,25.7
2022-11-21T15:05:24.798Z,25.6
2022-11-21T15:06:23.267Z,28.1
2022-11-21T15:07:32.166Z,32.7
2022-11-21T15:10:27.167Z,32.3
2022-11-21T15:10:57.830Z,30.3
2022-11-21T15:12:05.096Z,29.2
2022-11-21T15:13:14.541Z,29.4
2022-11-21T15:14:22.090Z,28.2
2022-11-21T15:15:34.403Z,31.1
2022-11-21T15:16:41.680Z,26.6
2022-11-21T15:18:18.341Z,28.9
2022-11-21T15:19:02.207Z,32.6
2022-11-21T15:20:13.056Z,30.5
2022-11-21T15:21:20.668Z,34.4
2022-11-21T15:22:28.191Z,36.8
2022-11-21T15:23:41.164Z,34
2022-11-21T15:24:48.896Z,37.6
2022-11-21T15:27:03.767Z,33.8
2022-11-21T15:28:21.243Z,34.9
2022-11-21T15:29:28.683Z,34.2
2022-11-21T15:30:35.360Z,36.6
2022-11-21T15:31:42.671Z,30.8
2022-11-21T15:32:49.896Z,33.8